createdAt,value
2022-09-03T00:02:28.319Z,95.70
2022-09-03T00:05:05.259Z,95.80
2022-09-03T00:07:40.838Z,95.90
2022-09-03T00:10:15.699Z,96.10
2022-09-03T00:12:47.134Z,96.30
2022-09-03T00:15:18.713Z,96.40
2022-09-03T00:17:50.138Z,96.40
2022-09-03T00:20:21.824Z,96.30
2022-09-03T00:22:54.254Z,96.10
2022-09-03T00:25:28.098Z,95.80
2022-09-03T00:27:58.816Z,95.80
2022-09-03T00:30:28.147Z,95.40
2022-09-03T00:33:00.097Z,95.40
2022-09-03T00:35:32.461Z,95.70
2022-09-03T00:38:01.592Z,95.80
2022-09-03T00:40:57.781Z,95.70
2022-09-03T00:43:34.317Z,95.90
2022-09-03T00:46:11.174Z,96.30
2022-09-03T00:48:55.385Z,96.60
2022-09-03T00:51:30.343Z,97.10
2022-09-03T00:54:10.276Z,97.50
2022-09-03T00:56:49.806Z,97.60
2022-09-03T00:59:28.169Z,97.60
2022-09-03T01:02:09.455Z,97.30
2022-09-03T01:04:50.009Z,97.40
2022-09-03T01:07:33.044Z,97.70
2022-09-03T01:10:11.489Z,97.70
2022-09-03T01:12:50.791Z,97.50
2022-09-03T01:15:28.684Z,97.00
2022-09-03T01:18:08.456Z,97.10
2022-09-03T01:20:56.998Z,97.10
2022-09-03T01:23:59.257Z,97.60
2022-09-03T01:26:41.025Z,97.70
2022-09-03T01:29:19.487Z,97.90
2022-09-03T01:31:59.955Z,98.20
2022-09-03T01:34:37.530Z,98.10
2022-09-03T01:37:15.511Z,97.90
2022-09-03T01:39:53.079Z,98.30
2022-09-03T01:42:26.640Z,98.00
2022-09-03T01:45:27.993Z,97.90
2022-09-03T01:48:33.534Z,97.70
2022-09-03T01:51:12.114Z,97.60
2022-09-03T01:53:58.053Z,97.50
2022-09-03T01:56:36.790Z,97.30
2022-09-03T01:59:10.434Z,97.90
2022-09-03T02:01:50.550Z,98.00
2022-09-03T02:04:23.397Z,98.00
2022-09-03T02:06:51.845Z,97.80
2022-09-03T02:09:21.154Z,98.00
2022-09-03T02:11:55.720Z,98.20
2022-09-03T02:14:23.922Z,98.20
2022-09-03T02:16:52.166Z,98.10
2022-09-03T02:19:21.634Z,98.00
2022-09-03T02:21:52.869Z,98.00
2022-09-03T02:24:21.059Z,98.10
2022-09-03T02:26:49.117Z,98.20
2022-09-03T02:29:18.433Z,98.20
2022-09-03T02:31:46.602Z,98.00
2022-09-03T02:34:15.093Z,98.10
2022-09-03T02:36:46.999Z,98.20
2022-09-03T02:39:15.923Z,98.10
2022-09-03T02:41:44.578Z,98.00
2022-09-03T02:44:23.917Z,98.10
2022-09-03T02:46:58.048Z,98.00
2022-09-03T02:49:27.068Z,98.00
2022-09-03T02:52:00.777Z,98.00
2022-09-03T02:54:29.222Z,97.70
2022-09-03T02:56:57.626Z,97.80
2022-09-03T02:59:28.240Z,97.80
2022-09-03T03:01:56.632Z,98.00
2022-09-03T03:04:29.366Z,97.90
2022-09-03T03:06:58.957Z,97.70
2022-09-03T03:09:26.978Z,97.80
2022-09-03T03:11:55.602Z,97.70
2022-09-03T03:14:23.823Z,97.50
2022-09-03T03:16:52.157Z,97.50
2022-09-03T03:19:20.322Z,97.50
2022-09-03T03:21:48.330Z,97.40
2022-09-03T03:24:17.696Z,97.30
2022-09-03T03:26:45.954Z,97.30
2022-09-03T03:29:17.900Z,97.30
2022-09-03T03:31:45.994Z,97.20
2022-09-03T03:34:13.996Z,97.20
2022-09-03T03:36:42.138Z,97.40
2022-09-03T03:39:11.237Z,97.50
2022-09-03T03:41:40.798Z,97.50
2022-09-03T03:44:09.757Z,97.60
2022-09-03T03:46:39.915Z,97.50
2022-09-03T03:49:10.335Z,97.50
2022-09-03T03:51:39.162Z,97.70
2022-09-03T03:54:07.308Z,97.90
2022-09-03T03:56:36.538Z,98.20
2022-09-03T03:59:06.018Z,98.40
2022-09-03T04:01:34.186Z,98.60
2022-09-03T04:04:02.554Z,98.90
2022-09-03T04:06:31.063Z,99.30
2022-09-03T04:08:59.040Z,99.50
2022-09-03T04:11:27.579Z,99.70
2022-09-03T04:13:55.752Z,99.80
2022-09-03T04:16:26.783Z,99.90
2022-09-03T04:18:55.964Z,99.90
2022-09-03T04:21:25.532Z,99.90
2022-09-03T04:23:57.310Z,99.90
2022-09-03T04:26:28.350Z,99.90
2022-09-03T04:28:56.841Z,99.90
2022-09-03T04:31:27.466Z,99.90
2022-09-03T04:33:55.795Z,99.90
2022-09-03T04:36:25.853Z,99.90
2022-09-03T04:38:55.422Z,99.90
2022-09-03T04:41:25.935Z,99.90
2022-09-03T04:43:55.531Z,99.90
2022-09-03T04:46:26.071Z,99.90
2022-09-03T04:48:56.225Z,99.90
2022-09-03T04:51:27.200Z,99.90
2022-09-03T04:53:57.617Z,99.90
2022-09-03T04:56:27.624Z,99.90
2022-09-03T04:58:57.458Z,99.90
2022-09-03T05:01:27.672Z,99.90
2022-09-03T05:03:58.039Z,99.90
2022-09-03T05:06:26.678Z,99.90
2022-09-03T05:08:56.312Z,99.90
2022-09-03T05:11:25.322Z,99.90
2022-09-03T05:13:54.851Z,99.90
2022-09-03T05:16:24.163Z,99.90
2022-09-03T05:18:54.033Z,99.90
2022-09-03T05:21:24.537Z,99.90
2022-09-03T05:23:53.947Z,99.90
2022-09-03T05:26:24.357Z,99.90
2022-09-03T05:28:56.096Z,99.90
2022-09-03T05:31:26.566Z,99.90
2022-09-03T05:33:57.835Z,99.90
2022-09-03T05:36:29.009Z,99.90
2022-09-03T05:38:58.458Z,99.90
2022-09-03T05:41:28.909Z,99.90
2022-09-03T05:43:59.477Z,99.90
2022-09-03T05:46:31.765Z,99.90
2022-09-03T05:49:00.607Z,99.90
2022-09-03T05:51:30.673Z,99.90
2022-09-03T05:53:59.819Z,99.90
2022-09-03T05:56:29.595Z,99.90
2022-09-03T05:59:01.647Z,99.90
2022-09-03T06:01:31.173Z,99.90
2022-09-03T06:04:00.647Z,99.90
2022-09-03T06:06:31.989Z,99.90
2022-09-03T06:09:02.697Z,99.90
2022-09-03T06:11:33.743Z,99.90
2022-09-03T06:14:05.083Z,99.90
2022-09-03T06:16:34.610Z,99.90
2022-09-03T06:19:02.733Z,99.90
2022-09-03T06:21:32.633Z,99.90
2022-09-03T06:24:00.642Z,99.90
2022-09-03T06:26:29.706Z,99.90
2022-09-03T06:28:59.867Z,99.90
2022-09-03T06:31:28.512Z,99.90
2022-09-03T06:34:00.810Z,99.90
2022-09-03T06:36:33.362Z,99.90
2022-09-03T06:39:01.634Z,99.90
2022-09-03T06:41:35.394Z,99.90
2022-09-03T06:44:05.824Z,99.90
2022-09-03T06:46:35.167Z,99.90
2022-09-03T06:49:03.611Z,99.90
2022-09-03T06:51:34.256Z,99.90
2022-09-03T06:54:04.198Z,99.90
2022-09-03T06:56:37.330Z,99.90
2022-09-03T06:59:09.304Z,99.90
2022-09-03T07:01:44.068Z,99.90
2022-09-03T07:04:14.646Z,99.90
2022-09-03T07:06:47.251Z,99.90
2022-09-03T07:09:18.229Z,99.90
2022-09-03T07:11:48.723Z,99.90
2022-09-03T07:14:18.608Z,99.90
2022-09-03T07:16:47.482Z,99.90
2022-09-03T07:19:16.309Z,99.90
2022-09-03T07:21:50.242Z,99.90
2022-09-03T07:24:19.718Z,99.90
2022-09-03T07:26:49.163Z,99.90
2022-09-03T07:29:20.155Z,99.90
2022-09-03T07:31:51.232Z,99.90
2022-09-03T07:34:19.718Z,99.90
2022-09-03T07:36:51.329Z,99.90
2022-09-03T07:39:20.419Z,99.90
2022-09-03T07:41:48.813Z,99.90
2022-09-03T07:44:19.380Z,99.90
2022-09-03T07:46:48.182Z,99.90
2022-09-03T07:49:17.312Z,99.90
2022-09-03T07:51:46.559Z,99.90
2022-09-03T07:54:15.964Z,99.90
2022-09-03T07:56:43.941Z,99.90
2022-09-03T07:59:12.440Z,99.90
2022-09-03T08:01:41.793Z,99.90
2022-09-03T08:04:11.025Z,99.90
2022-09-03T08:06:40.197Z,99.90
2022-09-03T08:09:11.436Z,99.90
2022-09-03T08:11:43.334Z,99.90
2022-09-03T08:14:12.924Z,99.90
2022-09-03T08:16:42.823Z,99.90
2022-09-03T08:19:11.981Z,99.90
2022-09-03T08:21:42.165Z,99.90
2022-09-03T08:24:11.048Z,99.90
2022-09-03T08:26:46.368Z,99.90
2022-09-03T08:29:18.752Z,99.90
2022-09-03T08:31:47.269Z,99.90
2022-09-03T08:34:17.607Z,99.90
2022-09-03T08:36:47.086Z,99.90
2022-09-03T08:39:15.490Z,99.90
2022-09-03T08:42:18.784Z,99.90
2022-09-03T08:44:49.758Z,99.90
2022-09-03T08:47:23.019Z,99.90
2022-09-03T08:49:55.857Z,99.90
2022-09-03T08:52:30.046Z,99.90
2022-09-03T08:55:08.405Z,99.90
2022-09-03T08:57:46.220Z,99.90
2022-09-03T09:00:15.005Z,99.90
2022-09-03T09:02:54.503Z,99.90
2022-09-03T09:05:30.747Z,99.90
2022-09-03T09:08:09.775Z,99.90
2022-09-03T09:10:45.476Z,99.90
2022-09-03T09:13:25.165Z,99.90
2022-09-03T09:16:07.117Z,99.90
2022-09-03T09:18:51.980Z,99.90
2022-09-03T09:21:27.623Z,99.90
2022-09-03T09:23:58.988Z,99.90
2022-09-03T09:26:27.050Z,99.90
2022-09-03T09:29:03.651Z,99.90
2022-09-03T09:31:31.942Z,99.90
2022-09-03T09:34:06.998Z,99.90
2022-09-03T09:36:44.620Z,99.90
2022-09-03T09:39:15.954Z,99.90
2022-09-03T09:41:44.793Z,99.90
2022-09-03T09:44:22.199Z,99.90
2022-09-03T09:46:54.756Z,99.90
2022-09-03T09:49:32.309Z,99.90
2022-09-03T09:52:06.869Z,99.90
2022-09-03T09:54:35.179Z,99.90
2022-09-03T09:57:05.747Z,99.90
2022-09-03T09:59:37.923Z,99.90
2022-09-03T10:02:22.006Z,99.90
2022-09-03T10:04:51.530Z,99.90
2022-09-03T10:07:25.584Z,99.90
2022-09-03T10:10:06.894Z,99.90
2022-09-03T10:12:40.435Z,99.90
2022-09-03T10:15:19.402Z,99.90
2022-09-03T10:17:58.561Z,99.90
2022-09-03T10:20:37.204Z,99.90
2022-09-03T10:23:12.902Z,99.90
2022-09-03T10:25:50.203Z,99.90
2022-09-03T10:28:19.396Z,99.90
2022-09-03T10:31:13.836Z,99.90
2022-09-03T10:33:48.374Z,99.90
2022-09-03T10:36:23.271Z,99.10
2022-09-03T10:38:55.576Z,98.70
2022-09-03T10:41:40.646Z,98.30
2022-09-03T10:44:26.496Z,97.80
2022-09-03T10:47:07.590Z,97.40
2022-09-03T10:49:51.816Z,98.30
2022-09-03T10:52:28.839Z,98.40
2022-09-03T10:55:06.102Z,98.40
2022-09-03T10:57:44.349Z,98.20
2022-09-03T11:00:14.206Z,98.00
2022-09-03T11:03:21.321Z,97.90
2022-09-03T11:06:00.150Z,97.70
2022-09-03T11:08:31.687Z,97.30
2022-09-03T11:11:10.431Z,97.30
2022-09-03T11:14:02.964Z,97.20
2022-09-03T11:16:35.350Z,96.80
2022-09-03T11:19:08.759Z,96.90
2022-09-03T11:21:41.817Z,96.30
2022-09-03T11:24:14.502Z,95.60
2022-09-03T11:26:48.322Z,96.00
2022-09-03T11:29:21.745Z,95.80
2022-09-03T11:31:58.783Z,95.30
2022-09-03T11:34:33.981Z,94.50
2022-09-03T11:37:19.473Z,94.70
2022-09-03T11:39:56.899Z,95.30
2022-09-03T11:42:34.888Z,95.00
2022-09-03T11:45:22.646Z,95.10
2022-09-03T11:47:51.767Z,95.30
2022-09-03T11:50:24.319Z,94.60
2022-09-03T11:52:53.355Z,93.90
2022-09-03T11:55:43.395Z,94.00
2022-09-03T11:58:14.587Z,93.10
2022-09-03T12:00:45.376Z,92.80
2022-09-03T12:03:17.996Z,93.20
2022-09-03T12:05:57.910Z,93.40
2022-09-03T12:08:57.364Z,92.20
2022-09-03T12:11:40.120Z,92.10
2022-09-03T12:14:13.946Z,92.70
2022-09-03T12:16:56.232Z,92.10
2022-09-03T12:19:32.611Z,91.20
2022-09-03T12:22:04.596Z,91.80
2022-09-03T12:24:37.742Z,90.40
2022-09-03T12:27:07.969Z,89.30
2022-09-03T12:29:36.119Z,89.60
2022-09-03T12:32:09.014Z,90.00
2022-09-03T12:34:37.094Z,90.20
2022-09-03T12:38:04.236Z,90.40
2022-09-03T12:40:19.049Z,91.10
2022-09-03T12:42:47.068Z,89.90
2022-09-03T12:45:21.034Z,90.80
2022-09-03T12:47:49.274Z,90.10
2022-09-03T12:50:20.021Z,88.50
2022-09-03T12:52:51.827Z,88.30
2022-09-03T12:55:29.050Z,88.50
2022-09-03T12:58:04.822Z,90.80
2022-09-03T13:00:35.857Z,90.90
2022-09-03T13:03:07.785Z,90.00
2022-09-03T13:05:38.046Z,90.10
2022-09-03T13:08:10.842Z,90.60
2022-09-03T13:10:42.285Z,90.30
2022-09-03T13:13:22.195Z,91.30
2022-09-03T13:16:05.113Z,91.40
2022-09-03T13:18:41.010Z,92.00
2022-09-03T13:21:16.474Z,92.90
2022-09-03T13:24:02.010Z,93.90
2022-09-03T13:26:39.565Z,98.10
2022-09-03T13:29:23.109Z,99.90
2022-09-03T13:31:54.382Z,99.90
2022-09-03T13:34:27.916Z,99.90
2022-09-03T13:36:59.504Z,99.90
2022-09-03T13:39:34.535Z,99.90
2022-09-03T13:42:08.207Z,99.90
2022-09-03T13:44:43.802Z,99.90
2022-09-03T13:47:19.115Z,99.90
2022-09-03T13:50:11.349Z,99.90
2022-09-03T13:52:43.614Z,99.90
2022-09-03T13:55:19.575Z,99.90
2022-09-03T13:57:52.310Z,99.90
2022-09-03T14:00:27.943Z,99.90
2022-09-03T14:03:05.352Z,99.90
2022-09-03T14:05:46.120Z,99.90
2022-09-03T14:08:22.084Z,99.90
2022-09-03T14:11:01.502Z,99.90
2022-09-03T14:14:06.581Z,99.90
2022-09-03T14:16:40.609Z,99.90
2022-09-03T14:19:14.232Z,99.90
2022-09-03T14:21:47.283Z,99.90
2022-09-03T14:24:21.636Z,99.90
2022-09-03T14:26:57.573Z,99.90
2022-09-03T14:29:29.119Z,99.90
2022-09-03T14:32:11.791Z,99.90
2022-09-03T14:34:50.842Z,99.90
2022-09-03T14:37:35.614Z,99.90
2022-09-03T14:40:14.371Z,99.90
2022-09-03T14:43:06.124Z,99.90
2022-09-03T14:45:51.836Z,99.90
2022-09-03T14:48:45.360Z,99.90
2022-09-03T14:51:32.548Z,99.90
2022-09-03T14:54:31.897Z,99.90
2022-09-03T14:57:12.886Z,99.90
2022-09-03T15:00:01.944Z,99.90
2022-09-03T15:03:05.322Z,99.90
2022-09-03T15:05:44.365Z,99.90
2022-09-03T15:08:20.910Z,99.90
2022-09-03T15:10:56.703Z,99.90
2022-09-03T15:13:28.581Z,99.90
2022-09-03T15:16:15.999Z,99.90
2022-09-03T15:19:01.872Z,99.90
2022-09-03T15:21:46.426Z,99.90
2022-09-03T15:24:28.950Z,99.90
2022-09-03T15:27:13.225Z,99.90
2022-09-03T15:29:53.761Z,99.90
2022-09-03T15:32:44.452Z,99.90
2022-09-03T15:35:33.604Z,99.90
2022-09-03T15:38:05.244Z,99.90
2022-09-03T15:40:37.205Z,99.90
2022-09-03T15:43:13.102Z,99.90
2022-09-03T15:45:52.152Z,99.90
2022-09-03T15:48:29.622Z,99.90
2022-09-03T15:51:11.004Z,99.90
2022-09-03T15:53:45.953Z,99.90
2022-09-03T15:56:23.064Z,99.90
2022-09-03T15:58:57.499Z,99.90
2022-09-03T16:01:37.280Z,99.90
2022-09-03T16:04:20.844Z,99.90
2022-09-03T16:06:56.578Z,99.90
2022-09-03T16:09:33.743Z,99.90
2022-09-03T16:12:11.650Z,99.90
2022-09-03T16:14:44.690Z,99.90
2022-09-03T16:17:23.642Z,99.90
2022-09-03T16:20:01.171Z,99.90
2022-09-03T16:22:30.838Z,99.90
2022-09-03T16:25:02.737Z,99.90
2022-09-03T16:27:36.956Z,99.90
2022-09-03T16:30:11.413Z,99.90
2022-09-03T16:32:59.025Z,99.90
2022-09-03T16:35:40.999Z,99.90
2022-09-03T16:38:33.769Z,99.90
2022-09-03T16:41:15.761Z,99.90
2022-09-03T16:43:48.313Z,99.90
2022-09-03T16:46:23.071Z,99.90
2022-09-03T16:49:06.075Z,99.90
2022-09-03T16:51:43.856Z,99.90
2022-09-03T16:54:27.116Z,99.90
2022-09-03T16:57:06.728Z,99.90
2022-09-03T17:00:02.631Z,99.90
2022-09-03T17:02:57.713Z,99.90
2022-09-03T17:05:46.542Z,99.90
2022-09-03T17:08:26.574Z,99.90
2022-09-03T17:11:04.329Z,99.90
2022-09-03T17:13:59.797Z,99.90
2022-09-03T17:16:43.529Z,99.90
2022-09-03T17:19:19.813Z,99.90
2022-09-03T17:21:52.877Z,99.90
2022-09-03T17:24:36.058Z,99.90
2022-09-03T17:27:35.457Z,99.90
2022-09-03T17:30:10.593Z,99.90
2022-09-03T17:32:57.265Z,99.90
2022-09-03T17:35:38.046Z,99.90
2022-09-03T17:38:21.185Z,99.90
2022-09-03T17:40:58.513Z,99.90
2022-09-03T17:43:39.023Z,99.90
2022-09-03T17:46:16.516Z,99.90
2022-09-03T17:48:52.447Z,99.90
2022-09-03T17:51:40.831Z,99.90
2022-09-03T17:54:16.457Z,99.90
2022-09-03T17:56:52.326Z,99.90
2022-09-03T17:59:32.468Z,99.90
2022-09-03T18:02:05.643Z,99.90
2022-09-03T18:04:45.703Z,99.90
2022-09-03T18:07:23.646Z,99.90
2022-09-03T18:10:07.740Z,99.90
2022-09-03T18:12:44.321Z,99.90
2022-09-03T18:15:37.601Z,99.90
2022-09-03T18:18:09.814Z,99.90
2022-09-03T18:21:22.257Z,99.90
2022-09-03T18:24:19.810Z,99.90
2022-09-03T18:27:11.790Z,99.90
2022-09-03T18:30:05.953Z,99.90
2022-09-03T18:32:51.856Z,99.90
2022-09-03T18:35:37.754Z,99.90
2022-09-03T18:38:24.221Z,99.90
2022-09-03T18:41:17.250Z,99.90
2022-09-03T18:44:18.382Z,99.90
2022-09-03T18:50:30.505Z,99.90
2022-09-03T18:53:29.570Z,99.90
2022-09-03T18:56:28.034Z,99.90
2022-09-03T18:59:28.375Z,99.90
2022-09-03T19:02:17.644Z,99.90
2022-09-03T19:05:23.455Z,99.90
2022-09-03T19:08:19.225Z,99.90
2022-09-03T19:11:10.262Z,99.90
2022-09-03T19:13:59.188Z,99.90
2022-09-03T19:16:56.821Z,99.90
2022-09-03T19:20:07.950Z,99.90
2022-09-03T19:22:55.160Z,99.90
2022-09-03T19:25:41.892Z,99.90
2022-09-03T19:28:32.790Z,99.90
2022-09-03T19:31:59.648Z,99.90
2022-09-03T19:35:34.495Z,99.90
2022-09-03T19:38:32.351Z,99.90
2022-09-03T19:41:27.569Z,99.90
2022-09-03T19:44:29.912Z,99.90
2022-09-03T19:47:17.719Z,99.90
2022-09-03T19:50:18.565Z,99.90
2022-09-03T19:53:11.343Z,99.90
2022-09-03T19:56:07.213Z,99.90
2022-09-03T19:58:58.017Z,99.90
2022-09-03T20:01:48.127Z,99.90
2022-09-03T20:04:34.913Z,99.90
2022-09-03T20:07:24.342Z,99.90
2022-09-03T20:10:16.321Z,99.90
2022-09-03T20:12:53.965Z,99.90
2022-09-03T20:15:27.845Z,99.90
2022-09-03T20:18:03.851Z,99.90
2022-09-03T20:20:41.816Z,99.90
2022-09-03T20:23:31.173Z,99.90
2022-09-03T20:26:10.739Z,99.90
2022-09-03T20:29:11.271Z,99.90
2022-09-03T20:31:50.702Z,99.90
2022-09-03T20:34:34.874Z,99.90
2022-09-03T20:37:27.493Z,99.90
2022-09-03T20:40:22.332Z,99.90
2022-09-03T20:43:11.510Z,99.90
2022-09-03T20:45:53.952Z,99.90
2022-09-03T20:48:52.356Z,99.90
2022-09-03T20:51:28.202Z,99.90
2022-09-03T20:54:11.833Z,99.90
2022-09-03T20:56:54.992Z,99.90
2022-09-03T20:59:34.402Z,99.90
2022-09-03T21:02:14.239Z,99.90
2022-09-03T21:04:54.162Z,99.90
2022-09-03T21:07:35.799Z,99.90
2022-09-03T21:10:16.112Z,99.90
2022-09-03T21:12:52.437Z,99.90
2022-09-03T21:15:29.061Z,99.90
2022-09-03T21:18:05.826Z,99.90
2022-09-03T21:20:40.833Z,99.90
2022-09-03T21:23:18.954Z,99.90
2022-09-03T21:25:55.643Z,99.90
2022-09-03T21:28:29.311Z,99.90
2022-09-03T21:31:15.707Z,99.90
2022-09-03T21:33:54.202Z,99.90
2022-09-03T21:36:31.588Z,99.90
2022-09-03T21:39:06.901Z,99.90
2022-09-03T21:41:40.598Z,99.90
2022-09-03T21:44:17.500Z,99.90
2022-09-03T21:46:55.082Z,99.90
2022-09-03T21:49:30.956Z,99.90
2022-09-03T21:52:03.888Z,99.90
2022-09-03T21:54:33.646Z,99.90
2022-09-03T21:57:23.406Z,99.90
2022-09-03T22:00:17.690Z,99.90
2022-09-03T22:02:52.139Z,99.90
2022-09-03T22:05:20.587Z,99.90
2022-09-03T22:08:06.962Z,99.90
2022-09-03T22:10:44.050Z,99.90
2022-09-03T22:13:18.304Z,99.90
2022-09-03T22:15:51.761Z,99.90
2022-09-03T22:18:28.800Z,99.90
2022-09-03T22:21:04.600Z,99.90
2022-09-03T22:23:43.711Z,99.90
2022-09-03T22:26:25.087Z,99.90
2022-09-03T22:29:03.679Z,99.90
2022-09-03T22:31:44.536Z,99.90
2022-09-03T22:34:26.799Z,99.90
2022-09-03T22:37:00.698Z,99.90
2022-09-03T22:39:36.548Z,99.90
2022-09-03T22:42:30.796Z,99.90
2022-09-03T22:45:21.497Z,99.90
2022-09-03T22:48:01.291Z,99.90
2022-09-03T22:50:34.067Z,99.90
2022-09-03T22:53:09.021Z,99.90
2022-09-03T22:55:39.047Z,99.90
2022-09-03T22:58:12.454Z,99.90
2022-09-03T23:00:45.956Z,99.90
2022-09-03T23:03:21.902Z,99.90
2022-09-03T23:05:57.666Z,99.90
2022-09-03T23:08:32.588Z,99.90
2022-09-03T23:11:06.973Z,99.90
2022-09-03T23:13:42.040Z,99.90
2022-09-03T23:16:15.307Z,99.90
2022-09-03T23:18:47.261Z,99.90
2022-09-03T23:21:23.679Z,99.90
2022-09-03T23:23:58.011Z,99.90
2022-09-03T23:26:36.382Z,99.90
2022-09-03T23:29:13.141Z,99.90
2022-09-03T23:31:41.812Z,99.90
2022-09-03T23:34:13.625Z,99.90
2022-09-03T23:40:14.107Z,99.90
2022-09-03T23:42:56.272Z,99.90
2022-09-03T23:45:35.942Z,99.90
2022-09-03T23:48:14.642Z,99.90
2022-09-03T23:50:49.698Z,99.90
2022-09-03T23:53:37.343Z,99.90
2022-09-03T23:56:27.570Z,99.90
2022-09-03T23:59:04.105Z,99.90
